createdAt,value
2018-10-03T00:00:59.957Z,13.53
2018-10-03T00:03:27.768Z,17.50
2018-10-03T00:05:55.701Z,19.53
2018-10-03T00:08:23.537Z,20.60
2018-10-03T00:10:51.437Z,12.17
2018-10-03T00:13:19.329Z,14.10
2018-10-03T00:15:47.258Z,15.83
2018-10-03T00:18:15.074Z,15.00
2018-10-03T00:20:42.975Z,26.17
2018-10-03T00:23:10.869Z,17.00
2018-10-03T00:25:38.737Z,18.20
2018-10-03T00:28:06.568Z,9.77
2018-10-03T00:30:34.434Z,22.97
2018-10-03T00:33:02.301Z,13.50
2018-10-03T00:35:30.164Z,16.00
2018-10-03T00:37:58.008Z,13.33
2018-10-03T00:40:25.933Z,9.53
2018-10-03T00:42:53.852Z,20.23
2018-10-03T00:45:22.765Z,16.70
2018-10-03T00:47:50.633Z,19.03
2018-10-03T00:50:18.521Z,7.77
2018-10-03T00:52:46.372Z,16.97
2018-10-03T00:55:14.238Z,13.43
2018-10-03T00:57:42.129Z,18.73
2018-10-03T01:00:09.980Z,19.20
2018-10-03T01:02:37.816Z,21.43
2018-10-03T01:05:05.820Z,12.73
2018-10-03T01:07:33.681Z,23.07
2018-10-03T01:10:01.570Z,16.20
2018-10-03T01:12:29.441Z,14.60
2018-10-03T01:14:57.274Z,16.30
2018-10-03T01:17:25.233Z,20.43
2018-10-03T01:19:53.080Z,17.20
2018-10-03T01:22:21.005Z,13.27
2018-10-03T01:24:48.841Z,24.67
2018-10-03T01:27:16.680Z,20.90
2018-10-03T01:29:44.601Z,18.37
2018-10-03T01:32:12.498Z,18.50
2018-10-03T01:34:40.441Z,16.53
2018-10-03T01:37:08.264Z,11.73
2018-10-03T01:39:36.109Z,11.33
2018-10-03T01:42:04.044Z,19.47
2018-10-03T01:44:31.948Z,17.20
2018-10-03T01:46:59.824Z,18.17
2018-10-03T01:49:27.693Z,18.23
2018-10-03T01:51:55.564Z,14.93
2018-10-03T01:54:23.437Z,12.37
2018-10-03T01:56:51.322Z,12.77
2018-10-03T01:59:19.238Z,16.53
2018-10-03T02:01:47.150Z,20.60
2018-10-03T02:04:14.992Z,14.87
2018-10-03T02:06:42.889Z,13.50
2018-10-03T02:09:10.748Z,14.30
2018-10-03T02:11:38.601Z,17.80
2018-10-03T02:14:06.473Z,17.23
2018-10-03T02:16:34.357Z,17.77
2018-10-03T02:19:02.241Z,16.03
2018-10-03T02:21:30.129Z,12.47
2018-10-03T02:23:58.948Z,13.90
2018-10-03T02:26:27.034Z,16.77
2018-10-03T02:28:54.910Z,18.47
2018-10-03T02:31:22.809Z,12.40
2018-10-03T02:33:50.746Z,12.77
2018-10-03T02:36:18.638Z,18.03
2018-10-03T02:38:46.485Z,15.90
2018-10-03T02:41:14.336Z,14.50
2018-10-03T02:43:42.417Z,16.77
2018-10-03T02:46:10.302Z,8.47
2018-10-03T02:48:38.162Z,12.43
2018-10-03T02:51:06.069Z,13.30
2018-10-03T02:53:34.009Z,8.67
2018-10-03T02:56:01.889Z,15.57
2018-10-03T02:58:29.812Z,16.33
2018-10-03T03:00:57.673Z,20.10
2018-10-03T03:03:25.525Z,15.33
2018-10-03T03:05:53.424Z,13.03
2018-10-03T03:08:21.301Z,16.33
2018-10-03T03:10:49.220Z,12.13
2018-10-03T03:13:17.112Z,16.10
2018-10-03T03:15:46.030Z,14.77
2018-10-03T03:18:13.892Z,20.47
2018-10-03T03:20:41.786Z,12.67
2018-10-03T03:23:09.620Z,14.20
2018-10-03T03:25:37.497Z,12.33
2018-10-03T03:28:05.405Z,13.67
2018-10-03T03:30:33.320Z,9.30
2018-10-03T03:33:01.225Z,11.97
2018-10-03T03:35:30.076Z,18.00
2018-10-03T03:37:58.021Z,8.50
2018-10-03T03:40:25.904Z,11.20
2018-10-03T03:42:53.823Z,15.83
2018-10-03T03:45:21.736Z,21.00
2018-10-03T03:47:49.609Z,14.90
2018-10-03T03:50:17.472Z,14.27
2018-10-03T03:52:45.317Z,32.23
2018-10-03T03:55:13.249Z,12.77
2018-10-03T03:57:41.118Z,15.33
2018-10-03T04:00:09.020Z,15.87
2018-10-03T04:02:36.922Z,15.23
2018-10-03T04:05:04.772Z,17.40
2018-10-03T04:07:33.718Z,15.07
2018-10-03T04:10:01.699Z,12.47
2018-10-03T04:12:29.577Z,8.77
2018-10-03T04:14:57.534Z,20.50
2018-10-03T04:17:25.490Z,12.40
2018-10-03T04:19:53.461Z,18.90
2018-10-03T04:22:21.413Z,16.23
2018-10-03T04:24:49.245Z,15.10
2018-10-03T04:27:17.132Z,17.40
2018-10-03T04:29:44.978Z,14.07
2018-10-03T04:32:12.882Z,10.50
2018-10-03T04:34:40.770Z,13.80
2018-10-03T04:37:08.705Z,21.00
2018-10-03T04:39:36.613Z,7.30
2018-10-03T04:42:04.596Z,17.60
2018-10-03T04:44:32.498Z,22.30
2018-10-03T04:47:00.360Z,12.17
2018-10-03T04:49:28.229Z,10.07
2018-10-03T04:51:56.126Z,16.43
2018-10-03T04:54:23.970Z,14.57
2018-10-03T04:56:51.843Z,10.30
2018-10-03T04:59:19.754Z,17.80
2018-10-03T05:01:47.692Z,11.23
2018-10-03T05:04:15.555Z,14.23
2018-10-03T05:06:43.412Z,16.63
2018-10-03T05:09:11.294Z,14.83
2018-10-03T05:11:39.097Z,10.60
2018-10-03T05:14:06.972Z,9.87
2018-10-03T05:16:34.896Z,13.50
2018-10-03T05:19:02.765Z,13.33
2018-10-03T05:21:30.628Z,15.13
2018-10-03T05:23:58.572Z,12.10
2018-10-03T05:26:27.474Z,13.77
2018-10-03T05:28:55.328Z,12.33
2018-10-03T05:31:23.199Z,17.00
2018-10-03T05:33:51.052Z,13.37
2018-10-03T05:36:19.993Z,14.07
2018-10-03T05:38:47.925Z,6.87
2018-10-03T05:41:15.821Z,11.10
2018-10-03T05:43:43.765Z,11.20
2018-10-03T05:46:11.902Z,9.20
2018-10-03T05:48:39.799Z,9.60
2018-10-03T05:51:07.628Z,21.17
2018-10-03T05:53:35.536Z,20.43
2018-10-03T05:56:03.400Z,8.27
2018-10-03T05:58:31.282Z,17.93
2018-10-03T06:00:59.124Z,21.00
2018-10-03T06:03:26.990Z,17.47
2018-10-03T06:05:54.861Z,10.20
2018-10-03T06:08:22.789Z,10.57
2018-10-03T06:10:50.668Z,13.47
2018-10-03T06:13:18.568Z,14.83
2018-10-03T06:15:46.400Z,14.77
2018-10-03T06:18:14.305Z,17.67
2018-10-03T06:20:42.141Z,15.10
2018-10-03T06:23:10.068Z,13.60
2018-10-03T06:25:37.918Z,11.87
2018-10-03T06:28:05.864Z,14.60
2018-10-03T06:30:33.736Z,13.17
2018-10-03T06:33:01.598Z,13.20
2018-10-03T06:35:29.543Z,9.20
2018-10-03T06:37:57.416Z,18.43
2018-10-03T06:40:25.416Z,16.23
2018-10-03T06:42:53.293Z,13.67
2018-10-03T06:45:21.266Z,14.83
2018-10-03T06:47:49.130Z,22.20
2018-10-03T06:50:16.964Z,12.80
2018-10-03T06:52:44.842Z,13.47
2018-10-03T06:55:12.746Z,11.80
2018-10-03T06:57:40.694Z,10.50
2018-10-03T07:00:08.610Z,15.60
2018-10-03T07:02:36.685Z,21.00
2018-10-03T07:05:04.678Z,21.80
2018-10-03T07:07:32.616Z,15.27
2018-10-03T07:10:00.662Z,13.50
2018-10-03T07:12:28.659Z,7.30
2018-10-03T07:14:56.563Z,13.17
2018-10-03T07:17:24.486Z,12.90
2018-10-03T07:19:52.396Z,11.43
2018-10-03T07:22:20.269Z,11.13
2018-10-03T07:24:48.141Z,19.00
2018-10-03T07:27:15.992Z,7.60
2018-10-03T07:29:43.860Z,13.37
2018-10-03T07:32:11.730Z,8.63
2018-10-03T07:34:39.625Z,14.23
2018-10-03T07:37:07.445Z,16.23
2018-10-03T07:39:35.321Z,10.20
2018-10-03T07:42:03.253Z,12.93
2018-10-03T07:44:31.188Z,10.30
2018-10-03T07:46:59.142Z,6.30
2018-10-03T07:49:27.006Z,15.23
2018-10-03T07:51:54.869Z,13.30
2018-10-03T07:54:22.741Z,10.93
2018-10-03T07:56:50.641Z,7.97
2018-10-03T07:59:18.513Z,10.93
2018-10-03T08:01:46.493Z,15.57
2018-10-03T08:04:14.447Z,12.17
2018-10-03T08:06:42.289Z,7.90
2018-10-03T08:09:10.958Z,18.40
2018-10-03T08:11:38.868Z,7.40
2018-10-03T08:14:06.741Z,15.80
2018-10-03T08:16:34.722Z,19.73
2018-10-03T08:19:02.692Z,5.67
2018-10-03T08:21:30.561Z,11.10
2018-10-03T08:23:58.498Z,10.53
2018-10-03T08:26:26.336Z,13.70
2018-10-03T08:28:54.199Z,13.60
2018-10-03T08:31:22.056Z,16.47
2018-10-03T08:33:49.940Z,14.77
2018-10-03T08:36:17.860Z,5.97
2018-10-03T08:38:46.784Z,9.87
2018-10-03T08:41:14.617Z,16.87
2018-10-03T08:43:45.854Z,6.80
2018-10-03T08:46:13.777Z,9.47
2018-10-03T08:48:41.707Z,11.00
2018-10-03T08:51:09.615Z,10.40
2018-10-03T08:53:37.581Z,9.40
2018-10-03T08:56:05.465Z,8.00
2018-10-03T08:58:33.429Z,10.00
2018-10-03T09:01:01.255Z,8.20
2018-10-03T09:03:29.147Z,7.87
2018-10-03T09:05:58.094Z,9.30
2018-10-03T09:08:25.981Z,9.90
2018-10-03T09:10:53.929Z,9.33
2018-10-03T09:13:21.864Z,18.63
2018-10-03T09:15:49.742Z,9.73
2018-10-03T09:18:17.572Z,9.10
2018-10-03T09:20:45.477Z,5.37
2018-10-03T09:23:13.400Z,6.53
2018-10-03T09:25:41.255Z,9.73
2018-10-03T09:28:09.215Z,10.10
2018-10-03T09:30:38.008Z,7.27
2018-10-03T09:33:06.965Z,13.03
2018-10-03T09:35:34.982Z,9.20
2018-10-03T09:38:02.872Z,6.83
2018-10-03T09:40:30.745Z,9.30
2018-10-03T09:42:58.642Z,9.70
2018-10-03T09:45:26.778Z,6.50
2018-10-03T09:47:54.617Z,5.97
2018-10-03T09:50:22.834Z,17.33
2018-10-03T09:52:50.708Z,9.83
2018-10-03T09:55:19.961Z,4.33
2018-10-03T09:57:47.881Z,7.00
2018-10-03T10:00:20.047Z,10.73
2018-10-03T10:02:47.889Z,10.93
2018-10-03T10:05:15.724Z,10.70
2018-10-03T10:07:43.659Z,4.07
2018-10-03T10:10:11.539Z,6.73
2018-10-03T10:12:39.463Z,5.50
2018-10-03T10:15:07.200Z,5.13
2018-10-03T10:17:35.069Z,7.47
2018-10-03T10:20:03.127Z,6.80
2018-10-03T10:22:31.080Z,8.17
2018-10-03T10:24:58.992Z,6.90
2018-10-03T10:27:26.894Z,9.67
2018-10-03T10:29:54.813Z,6.17
2018-10-03T10:32:23.236Z,8.73
2018-10-03T10:34:51.097Z,11.27
2018-10-03T10:37:18.976Z,10.60
2018-10-03T10:39:46.829Z,6.83
2018-10-03T10:42:14.709Z,10.13
2018-10-03T10:44:42.643Z,10.50
2018-10-03T10:47:10.518Z,9.80
2018-10-03T10:49:38.433Z,8.53
2018-10-03T10:54:33.410Z,8.00
2018-10-03T10:57:01.372Z,7.90
2018-10-03T10:59:29.461Z,9.00
2018-10-03T11:01:57.297Z,3.90
2018-10-03T11:04:25.229Z,8.70
2018-10-03T11:06:53.146Z,7.37
2018-10-03T11:09:21.057Z,5.90
2018-10-03T11:11:49.002Z,6.60
2018-10-03T11:14:16.840Z,6.70
2018-10-03T11:16:44.746Z,11.20
2018-10-03T11:19:12.559Z,8.33
2018-10-03T11:21:40.536Z,5.70
2018-10-03T11:24:08.454Z,10.77
2018-10-03T11:26:36.292Z,7.90
2018-10-03T11:29:04.121Z,6.43
2018-10-03T11:31:32.278Z,9.60
2018-10-03T11:34:00.221Z,10.53
2018-10-03T11:36:28.077Z,5.97
2018-10-03T11:38:55.932Z,11.87
2018-10-03T11:41:23.929Z,5.60
2018-10-03T11:43:51.880Z,7.73
2018-10-03T11:46:19.753Z,7.03
2018-10-03T11:48:47.585Z,11.47
2018-10-03T11:51:15.481Z,8.83
2018-10-03T11:53:43.386Z,7.43
2018-10-03T11:56:11.341Z,9.20
2018-10-03T11:58:39.253Z,5.00
2018-10-03T12:01:07.234Z,9.00
2018-10-03T12:03:35.200Z,7.77
2018-10-03T12:06:03.054Z,7.93
2018-10-03T12:08:30.977Z,5.60
2018-10-03T12:10:58.885Z,6.03
2018-10-03T12:13:26.744Z,6.10
2018-10-03T12:15:54.672Z,9.17
2018-10-03T12:18:22.475Z,4.13
2018-10-03T12:20:50.369Z,8.00
2018-10-03T12:23:18.302Z,6.60
2018-10-03T12:25:46.202Z,7.03
2018-10-03T12:28:14.059Z,4.97
2018-10-03T12:30:41.916Z,6.30
2018-10-03T12:33:09.843Z,5.20
2018-10-03T12:35:37.710Z,7.50
2018-10-03T12:38:05.568Z,5.53
2018-10-03T12:40:33.493Z,10.90
2018-10-03T12:43:01.406Z,3.10
2018-10-03T12:45:29.524Z,8.23
2018-10-03T12:47:57.784Z,4.63
2018-10-03T12:50:26.001Z,5.30
2018-10-03T12:52:53.984Z,7.37
2018-10-03T12:55:23.324Z,8.10
2018-10-03T12:57:51.257Z,9.70
2018-10-03T13:00:19.068Z,5.90
2018-10-03T13:02:46.997Z,8.03
2018-10-03T13:05:14.878Z,4.23
2018-10-03T13:07:43.742Z,6.77
2018-10-03T13:10:11.589Z,7.03
2018-10-03T13:12:39.441Z,4.30
2018-10-03T13:15:07.327Z,7.23
2018-10-03T13:17:35.188Z,9.13
2018-10-03T13:20:03.110Z,4.40
2018-10-03T13:22:31.050Z,10.37
2018-10-03T13:24:58.930Z,2.30
2018-10-03T13:27:26.863Z,5.03
2018-10-03T13:29:54.778Z,5.23
2018-10-03T13:32:22.709Z,3.63
2018-10-03T13:34:50.637Z,4.37
2018-10-03T13:37:18.567Z,3.53
2018-10-03T13:39:46.441Z,6.50
2018-10-03T13:42:14.313Z,2.60
2018-10-03T13:44:42.305Z,3.27
2018-10-03T13:47:10.196Z,4.73
2018-10-03T13:49:38.072Z,3.63
2018-10-03T13:52:07.206Z,6.10
2018-10-03T13:54:35.073Z,3.17
2018-10-03T13:57:03.139Z,6.10
2018-10-03T13:59:31.014Z,4.23
2018-10-03T14:01:59.882Z,9.40
2018-10-03T14:04:27.723Z,6.30
2018-10-03T14:06:55.662Z,2.67
2018-10-03T14:09:23.585Z,3.77
2018-10-03T14:11:52.469Z,6.70
2018-10-03T14:14:20.340Z,6.93
2018-10-03T14:16:48.188Z,3.37
2018-10-03T14:19:16.052Z,7.77
2018-10-03T14:21:43.964Z,5.73
2018-10-03T14:24:11.821Z,3.70
2018-10-03T14:26:39.673Z,4.43
2018-10-03T14:29:08.626Z,2.50
2018-10-03T14:31:36.562Z,7.10
2018-10-03T14:34:04.422Z,5.63
2018-10-03T14:36:33.268Z,3.10
2018-10-03T14:39:01.161Z,4.40
2018-10-03T14:41:29.051Z,6.10
2018-10-03T14:43:56.885Z,7.07
2018-10-03T14:46:24.782Z,3.70
2018-10-03T14:48:52.648Z,6.37
2018-10-03T14:51:20.485Z,6.57
2018-10-03T14:53:48.378Z,4.30
2018-10-03T14:56:16.218Z,5.23
2018-10-03T14:58:44.212Z,4.27
2018-10-03T15:01:12.060Z,3.23
2018-10-03T15:03:39.888Z,5.50
2018-10-03T15:06:07.795Z,3.10
2018-10-03T15:08:36.640Z,6.13
2018-10-03T15:11:04.555Z,3.90
2018-10-03T15:13:32.392Z,3.47
2018-10-03T15:16:00.302Z,7.20
2018-10-03T15:18:28.157Z,6.70
2018-10-03T15:20:55.996Z,7.77
2018-10-03T15:23:23.884Z,5.87
2018-10-03T15:25:51.736Z,5.60
2018-10-03T15:28:19.568Z,4.63
2018-10-03T15:30:47.493Z,10.30
2018-10-03T15:33:15.342Z,5.23
2018-10-03T15:35:43.253Z,12.87
2018-10-03T15:38:11.182Z,4.57
2018-10-03T15:40:39.045Z,6.67
2018-10-03T15:43:07.089Z,8.73
2018-10-03T15:45:34.958Z,5.43
2018-10-03T15:48:02.880Z,7.40
2018-10-03T15:50:30.735Z,6.13
2018-10-03T15:52:59.712Z,4.93
2018-10-03T15:55:27.674Z,7.70
2018-10-03T15:57:55.736Z,7.80
2018-10-03T16:00:23.628Z,7.13
2018-10-03T16:02:51.484Z,4.60
2018-10-03T16:05:20.356Z,5.70
2018-10-03T16:07:48.204Z,6.13
2018-10-03T16:10:16.153Z,5.67
2018-10-03T16:12:44.093Z,3.07
2018-10-03T16:15:11.927Z,2.70
2018-10-03T16:17:39.752Z,7.40
2018-10-03T16:20:07.758Z,7.63
2018-10-03T16:22:35.637Z,7.77
2018-10-03T16:25:03.533Z,6.93
2018-10-03T16:27:31.492Z,9.40
2018-10-03T16:29:59.357Z,5.60
2018-10-03T16:32:27.374Z,8.17
2018-10-03T16:34:55.073Z,8.57
2018-10-03T16:37:22.960Z,9.03
2018-10-03T16:39:50.789Z,4.93
2018-10-03T16:42:18.680Z,8.87
2018-10-03T16:44:46.553Z,9.50
2018-10-03T16:47:14.449Z,9.03
2018-10-03T16:49:42.256Z,14.97
2018-10-03T16:52:10.128Z,4.63
2018-10-03T16:54:38.012Z,6.77
2018-10-03T16:57:05.882Z,10.73
2018-10-03T16:59:33.753Z,7.20
2018-10-03T17:02:01.684Z,7.13
2018-10-03T17:04:29.568Z,5.37
2018-10-03T17:06:57.486Z,5.40
2018-10-03T17:09:25.469Z,8.60
2018-10-03T17:11:53.389Z,9.40
2018-10-03T17:14:24.085Z,9.43
2018-10-03T17:16:52.589Z,5.93
2018-10-03T17:19:20.545Z,4.83
2018-10-03T17:21:49.408Z,5.30
2018-10-03T17:24:17.396Z,6.70
2018-10-03T17:26:45.561Z,6.03
2018-10-03T17:29:13.540Z,11.07
2018-10-03T17:31:42.457Z,5.67
2018-10-03T17:34:10.383Z,6.87
2018-10-03T17:36:38.264Z,5.80
2018-10-03T17:39:06.328Z,5.70
2018-10-03T17:41:34.314Z,13.57
2018-10-03T17:44:02.208Z,6.90
2018-10-03T17:46:30.186Z,6.67
2018-10-03T17:48:58.105Z,6.60
2018-10-03T17:51:26.028Z,7.07
2018-10-03T17:53:53.913Z,6.30
2018-10-03T17:56:21.837Z,5.77
2018-10-03T17:58:50.732Z,7.30
2018-10-03T18:01:18.600Z,4.80
2018-10-03T18:03:46.526Z,8.60
2018-10-03T18:06:14.498Z,8.87
2018-10-03T18:08:42.512Z,5.70
2018-10-03T18:11:10.445Z,5.40
2018-10-03T18:13:38.473Z,6.30
2018-10-03T18:16:06.428Z,4.30
2018-10-03T18:18:34.294Z,5.80
2018-10-03T18:21:02.157Z,7.20
2018-10-03T18:23:30.021Z,5.03
2018-10-03T18:25:57.929Z,5.27
2018-10-03T18:28:25.761Z,5.60
2018-10-03T18:30:53.665Z,4.27
2018-10-03T18:33:21.549Z,9.10
2018-10-03T18:35:49.534Z,10.53
2018-10-03T18:38:17.391Z,6.63
2018-10-03T18:40:45.309Z,8.73
2018-10-03T18:43:13.157Z,4.93
2018-10-03T18:45:41.050Z,3.20
2018-10-03T18:48:08.937Z,6.00
2018-10-03T18:50:36.926Z,5.10
2018-10-03T18:53:04.854Z,6.67
2018-10-03T18:55:32.982Z,3.93
2018-10-03T18:58:00.888Z,6.40
2018-10-03T19:00:28.753Z,3.53
2018-10-03T19:02:56.606Z,4.03
2018-10-03T19:05:24.509Z,4.13
2018-10-03T19:07:52.347Z,11.10
2018-10-03T19:10:20.257Z,6.70
2018-10-03T19:12:48.157Z,5.23
2018-10-03T19:15:16.085Z,9.43
2018-10-03T19:17:43.993Z,4.87
2018-10-03T19:20:11.941Z,7.40
2018-10-03T19:22:39.867Z,8.33
2018-10-03T19:25:07.817Z,6.40
2018-10-03T19:27:35.757Z,7.93
2018-10-03T19:30:03.584Z,4.50
2018-10-03T19:32:31.508Z,6.33
2018-10-03T19:34:59.421Z,5.60
2018-10-03T19:37:28.272Z,3.03
2018-10-03T19:39:56.211Z,8.07
2018-10-03T19:42:24.154Z,6.03
2018-10-03T19:44:52.114Z,9.60
2018-10-03T19:47:21.004Z,6.13
2018-10-03T19:49:48.889Z,5.57
2018-10-03T19:52:16.764Z,9.70
2018-10-03T19:54:44.712Z,5.70
2018-10-03T19:57:12.885Z,6.10
2018-10-03T19:59:40.844Z,10.63
2018-10-03T20:02:08.843Z,5.60
2018-10-03T20:04:36.736Z,7.37
2018-10-03T20:07:04.810Z,5.30
2018-10-03T20:09:32.728Z,9.20
2018-10-03T20:12:00.791Z,9.40
2018-10-03T20:14:28.627Z,8.23
2018-10-03T20:16:56.550Z,6.00
2018-10-03T20:19:24.475Z,7.30
2018-10-03T20:21:52.429Z,6.50
2018-10-03T20:24:20.266Z,6.50
2018-10-03T20:26:48.201Z,5.07
2018-10-03T20:29:16.049Z,9.37
2018-10-03T20:31:43.893Z,9.10
2018-10-03T20:34:11.780Z,2.67
2018-10-03T20:36:39.675Z,6.87
2018-10-03T20:39:07.858Z,5.23
2018-10-03T20:41:35.811Z,10.47
2018-10-03T20:44:04.041Z,4.33
2018-10-03T20:46:31.930Z,7.30
2018-10-03T20:48:59.796Z,5.83
2018-10-03T20:51:27.650Z,4.93
2018-10-03T20:53:55.513Z,4.03
2018-10-03T20:56:23.423Z,5.20
2018-10-03T20:58:51.291Z,9.10
2018-10-03T21:01:19.228Z,5.03
2018-10-03T21:03:47.084Z,8.40
2018-10-03T21:06:15.961Z,6.07
2018-10-03T21:08:43.983Z,5.63
2018-10-03T21:11:11.817Z,5.00
2018-10-03T21:13:39.652Z,5.73
2018-10-03T21:16:07.585Z,9.03
2018-10-03T21:18:35.442Z,7.47
2018-10-03T21:21:03.300Z,7.63
2018-10-03T21:23:31.157Z,7.80
2018-10-03T21:25:59.057Z,7.43
2018-10-03T21:28:26.903Z,3.87
2018-10-03T21:30:54.784Z,6.80
2018-10-03T21:33:22.653Z,3.90
2018-10-03T21:35:50.517Z,7.10
2018-10-03T21:38:18.356Z,10.50
2018-10-03T21:40:46.245Z,7.67
2018-10-03T21:43:14.101Z,8.87
2018-10-03T21:45:41.984Z,4.70
2018-10-03T21:48:09.858Z,10.50
2018-10-03T21:50:37.685Z,6.10
2018-10-03T21:53:05.563Z,7.53
2018-10-03T21:55:34.506Z,6.50
2018-10-03T21:58:02.380Z,9.23
2018-10-03T22:00:35.878Z,2.80
2018-10-03T22:03:04.020Z,9.10
2018-10-03T22:05:31.876Z,7.17
2018-10-03T22:07:59.816Z,6.13
2018-10-03T22:10:27.672Z,7.60
2018-10-03T22:12:55.557Z,8.33
2018-10-03T22:15:23.393Z,10.07
2018-10-03T22:17:51.330Z,7.03
2018-10-03T22:20:19.272Z,9.13
2018-10-03T22:22:47.184Z,5.57
2018-10-03T22:25:15.032Z,8.60
2018-10-03T22:27:43.011Z,8.90
2018-10-03T22:30:10.948Z,9.50
2018-10-03T22:32:38.805Z,10.40
2018-10-03T22:35:06.708Z,4.60
2018-10-03T22:37:34.652Z,12.10
2018-10-03T22:40:02.489Z,6.50
2018-10-03T22:42:30.393Z,5.30
2018-10-03T22:44:58.204Z,8.40
2018-10-03T22:47:27.117Z,6.13
2018-10-03T22:49:55.225Z,6.30
2018-10-03T22:52:23.242Z,8.03
2018-10-03T22:54:51.098Z,3.77
2018-10-03T22:57:19.086Z,7.43
2018-10-03T22:59:46.990Z,3.50
2018-10-03T23:02:14.851Z,6.90
2018-10-03T23:04:42.739Z,13.53
2018-10-03T23:07:10.677Z,13.03
2018-10-03T23:09:38.603Z,7.10
2018-10-03T23:12:07.024Z,4.63
2018-10-03T23:14:34.908Z,5.50
2018-10-03T23:17:02.736Z,4.93
2018-10-03T23:19:30.576Z,9.43
2018-10-03T23:21:58.513Z,6.30
2018-10-03T23:24:26.360Z,11.07
2018-10-03T23:26:54.271Z,7.50
2018-10-03T23:29:22.205Z,7.47
2018-10-03T23:31:50.032Z,4.90
2018-10-03T23:34:17.932Z,9.07
2018-10-03T23:36:45.812Z,5.90
2018-10-03T23:39:13.661Z,4.60
2018-10-03T23:41:41.761Z,6.50
2018-10-03T23:44:10.106Z,6.70
2018-10-03T23:46:38.001Z,9.83
2018-10-03T23:49:05.865Z,5.40
2018-10-03T23:51:33.761Z,10.83
2018-10-03T23:54:01.701Z,9.40
2018-10-03T23:56:29.605Z,9.80
2018-10-03T23:58:57.516Z,6.77
